Freetown, Freetown Lungi International Airport (GFLL)

NameFreetown Lungi International Airport
CityFreetown
CountrySierra Leone
ICAOGFLL
IATAFNA
Altitude26 m
CoordinatesGoogle Map
Live Air TrafficLiveATC.net
METARGFLL 251700Z 27006KT 9999 SCT013 31/24 Q1008
2020-04-25 17:00:00 Wind: West (270°) 3.09 m/s - Visibility: > 10000 m - Temperature: 31 °C - Dew point: 24 °C - Humidity: 66.3% - Pressure: 1008 hPa

Sorry, no flights used the airport in this database.